createdAt,value
2023-03-17T00:01:24.096Z,100139.97
2023-03-17T00:03:29.788Z,100143.41
2023-03-17T00:05:34.050Z,100139.09
2023-03-17T00:07:36.099Z,100145.09
2023-03-17T00:09:38.375Z,100147.69
2023-03-17T00:11:40.288Z,100140.75
2023-03-17T00:13:42.600Z,100149.38
2023-03-17T00:15:46.574Z,100159.75
2023-03-17T00:17:49.998Z,100148.50
2023-03-17T00:19:51.710Z,100155.41
2023-03-17T00:21:53.441Z,100155.41
2023-03-17T00:23:56.334Z,100145.94
2023-03-17T00:25:58.225Z,100145.06
2023-03-17T00:28:01.632Z,100150.22
2023-03-17T00:30:03.848Z,100138.16
2023-03-17T00:32:06.343Z,100136.47
2023-03-17T00:34:15.712Z,100146.78
2023-03-17T00:36:21.380Z,100151.06
2023-03-17T00:38:25.009Z,100145.06
2023-03-17T00:40:29.625Z,100157.13
2023-03-17T00:42:31.561Z,100158.81
2023-03-17T00:44:35.474Z,100150.16
2023-03-17T00:46:38.443Z,100148.47
2023-03-17T00:48:41.814Z,100151.94
2023-03-17T00:50:45.273Z,100153.69
2023-03-17T00:52:47.026Z,100165.66
2023-03-17T00:54:48.901Z,100161.38
2023-03-17T00:56:52.190Z,100149.31
2023-03-17T00:58:53.889Z,100153.63
2023-03-17T01:00:56.526Z,100159.66
2023-03-17T01:02:58.282Z,100161.38
2023-03-17T01:05:06.289Z,100166.56
2023-03-17T01:07:11.285Z,100172.59
2023-03-17T01:09:15.629Z,100167.44
2023-03-17T01:11:20.531Z,100162.28
2023-03-17T01:13:23.340Z,100166.59
2023-03-17T01:15:28.955Z,100182.03
2023-03-17T01:17:30.699Z,100181.13
2023-03-17T01:19:32.743Z,100179.47
2023-03-17T01:21:34.703Z,100186.38
2023-03-17T01:23:36.756Z,100177.75
2023-03-17T01:25:41.509Z,100193.22
2023-03-17T01:27:45.133Z,100184.66
2023-03-17T01:29:48.168Z,100177.75
2023-03-17T01:31:49.863Z,100167.44
2023-03-17T01:33:52.927Z,100172.59
2023-03-17T01:35:54.698Z,100167.41
2023-03-17T01:37:57.309Z,100170.00
2023-03-17T01:39:59.736Z,100168.28
2023-03-17T01:42:01.642Z,100157.97
2023-03-17T01:44:04.562Z,100170.84
2023-03-17T01:46:34.363Z,100167.41
2023-03-17T01:48:51.111Z,100167.44
2023-03-17T01:50:53.956Z,100163.09
2023-03-17T01:52:55.655Z,100164.84
2023-03-17T01:55:03.772Z,100159.69
2023-03-17T01:57:28.792Z,100161.41
2023-03-17T01:59:35.604Z,100159.72
2023-03-17T02:01:42.801Z,100154.53
2023-03-17T02:03:45.282Z,100163.16
2023-03-17T02:05:48.626Z,100162.28
2023-03-17T02:07:51.987Z,100160.53
2023-03-17T02:09:55.333Z,100165.69
2023-03-17T02:12:00.852Z,100164.84
2023-03-17T02:14:02.804Z,100159.69
2023-03-17T02:16:05.941Z,100158.78
2023-03-17T02:18:08.808Z,100163.97
2023-03-17T02:20:16.566Z,100153.66
2023-03-17T02:22:19.904Z,100148.47
2023-03-17T02:24:39.518Z,100151.06
2023-03-17T02:26:43.613Z,100145.91
2023-03-17T02:28:46.247Z,100149.34
2023-03-17T02:30:47.992Z,100147.63
2023-03-17T02:32:50.502Z,100144.19
2023-03-17T02:34:52.234Z,100149.31
2023-03-17T02:36:54.069Z,100157.06
2023-03-17T02:38:57.168Z,100151.06
2023-03-17T02:40:58.959Z,100148.50
2023-03-17T02:43:00.873Z,100141.59
2023-03-17T02:45:02.731Z,100150.22
2023-03-17T02:47:06.628Z,100149.34
2023-03-17T02:49:08.863Z,100148.47
2023-03-17T02:51:10.961Z,100151.91
2023-03-17T02:53:13.222Z,100143.31
2023-03-17T02:55:15.468Z,100145.91
2023-03-17T02:57:17.398Z,100140.72
2023-03-17T02:59:19.233Z,100148.50
2023-03-17T03:01:21.484Z,100147.63
2023-03-17T03:03:23.202Z,100157.06
2023-03-17T03:05:24.990Z,100151.06
2023-03-17T03:07:26.635Z,100149.34
2023-03-17T03:09:28.502Z,100146.72
2023-03-17T03:11:30.406Z,100145.84
2023-03-17T03:13:32.313Z,100141.53
2023-03-17T03:15:34.406Z,100136.41
2023-03-17T03:17:36.478Z,100127.78
2023-03-17T03:19:38.420Z,100133.81
2023-03-17T03:21:40.119Z,100140.72
2023-03-17T03:23:41.879Z,100126.06
2023-03-17T03:25:43.631Z,100128.69
2023-03-17T03:27:45.305Z,100127.78
2023-03-17T03:29:47.123Z,100135.56
2023-03-17T03:31:48.968Z,100132.97
2023-03-17T03:33:50.810Z,100123.50
2023-03-17T03:35:52.941Z,100114.88
2023-03-17T03:37:54.650Z,100115.75
2023-03-17T03:39:56.404Z,100120.09
2023-03-17T03:41:58.499Z,100120.94
2023-03-17T03:44:00.582Z,100123.53
2023-03-17T03:46:03.091Z,100126.97
2023-03-17T03:48:05.430Z,100118.38
2023-03-17T03:50:08.818Z,100116.66
2023-03-17T03:52:10.633Z,100122.66
2023-03-17T03:54:12.583Z,100122.69
2023-03-17T03:56:14.740Z,100116.66
2023-03-17T03:58:16.489Z,100121.81
2023-03-17T04:00:18.563Z,100128.72
2023-03-17T04:02:20.533Z,100126.97
2023-03-17T04:04:23.091Z,100127.81
2023-03-17T04:06:24.885Z,100128.72
2023-03-17T04:08:27.384Z,100128.69
2023-03-17T04:10:31.186Z,100129.59
2023-03-17T04:12:33.124Z,100118.38
2023-03-17T04:14:34.932Z,100118.38
2023-03-17T04:16:37.233Z,100113.22
2023-03-17T04:18:39.381Z,100108.91
2023-03-17T04:20:41.282Z,100115.78
2023-03-17T04:22:43.836Z,100116.66
2023-03-17T04:24:46.154Z,100111.50
2023-03-17T04:26:47.901Z,100110.63
2023-03-17T04:28:49.847Z,100110.63
2023-03-17T04:30:51.805Z,100107.19
2023-03-17T04:32:54.715Z,100105.47
2023-03-17T04:34:57.958Z,100108.94
2023-03-17T04:36:59.715Z,100108.03
2023-03-17T04:39:02.107Z,100111.50
2023-03-17T04:41:03.981Z,100120.94
2023-03-17T04:43:06.668Z,100127.00
2023-03-17T04:45:11.415Z,100115.78
2023-03-17T04:47:13.179Z,100118.38
2023-03-17T04:49:14.935Z,100111.47
2023-03-17T04:51:17.225Z,100111.50
2023-03-17T04:53:28.713Z,100105.44
2023-03-17T04:55:30.636Z,100106.31
2023-03-17T04:57:32.573Z,100108.03
2023-03-17T04:59:34.277Z,100103.72
2023-03-17T05:01:39.082Z,100103.75
2023-03-17T05:03:41.169Z,100107.19
2023-03-17T05:05:42.866Z,100108.06
2023-03-17T05:07:44.976Z,100117.50
2023-03-17T05:09:47.469Z,100112.34
2023-03-17T05:11:49.137Z,100113.19
2023-03-17T05:13:50.862Z,100126.13
2023-03-17T05:15:55.377Z,100135.56
2023-03-17T05:17:57.308Z,100137.31
2023-03-17T05:19:58.982Z,100134.72
2023-03-17T05:22:00.669Z,100139.88
2023-03-17T05:24:02.349Z,100137.28
2023-03-17T05:26:04.926Z,100138.16
2023-03-17T05:28:07.842Z,100140.72
2023-03-17T05:30:10.382Z,100134.72
2023-03-17T05:32:12.180Z,100139.88
2023-03-17T05:34:13.995Z,100147.59
2023-03-17T05:36:16.332Z,100147.59
2023-03-17T05:38:18.234Z,100144.16
2023-03-17T05:40:20.985Z,100136.41
2023-03-17T05:42:24.144Z,100137.28
2023-03-17T05:44:25.890Z,100135.56
2023-03-17T05:46:27.716Z,100133.84
2023-03-17T05:48:29.949Z,100133.78
2023-03-17T05:50:32.682Z,100136.41
2023-03-17T05:52:34.524Z,100134.66
2023-03-17T05:54:36.299Z,100136.41
2023-03-17T05:56:38.030Z,100132.94
2023-03-17T05:58:39.775Z,100138.94
2023-03-17T06:00:42.180Z,100138.97
2023-03-17T06:02:43.963Z,100141.56
2023-03-17T06:04:45.884Z,100146.75
2023-03-17T06:06:47.636Z,100143.28
2023-03-17T06:08:49.274Z,100139.88
2023-03-17T06:10:50.966Z,100145.03
2023-03-17T06:12:53.030Z,100153.63
2023-03-17T06:14:54.884Z,100156.22
2023-03-17T06:16:56.975Z,100148.44
2023-03-17T06:18:58.997Z,100145.84
2023-03-17T06:21:00.763Z,100150.16
2023-03-17T06:23:05.250Z,100140.69
2023-03-17T06:25:08.585Z,100142.44
2023-03-17T06:27:11.139Z,100141.59
2023-03-17T06:29:12.906Z,100134.66
2023-03-17T06:31:14.622Z,100135.50
2023-03-17T06:33:22.588Z,100140.69
2023-03-17T06:35:25.332Z,100144.09
2023-03-17T06:37:30.875Z,100148.41
2023-03-17T06:39:32.783Z,100152.72
2023-03-17T06:41:34.499Z,100157.00
2023-03-17T06:43:36.373Z,100157.84
2023-03-17T06:45:38.110Z,100148.41
2023-03-17T06:47:40.108Z,100144.06
2023-03-17T06:49:42.887Z,100144.09
2023-03-17T06:51:44.571Z,100149.28
2023-03-17T06:53:46.390Z,100142.38
2023-03-17T06:55:48.469Z,100136.38
2023-03-17T06:57:51.288Z,100141.53
2023-03-17T06:59:53.784Z,100149.28
2023-03-17T07:02:29.946Z,100135.50
2023-03-17T07:04:49.955Z,100156.97
2023-03-17T07:06:53.325Z,100156.13
2023-03-17T07:09:02.288Z,100155.28
2023-03-17T07:11:04.682Z,100148.38
2023-03-17T07:13:08.526Z,100150.13
2023-03-17T07:15:12.520Z,100138.94
2023-03-17T07:17:14.856Z,100134.66
2023-03-17T07:19:16.828Z,100132.06
2023-03-17T07:21:18.659Z,100125.22
2023-03-17T07:23:31.203Z,100136.38
2023-03-17T07:25:33.130Z,100136.38
2023-03-17T07:27:35.162Z,100148.44
2023-03-17T07:29:36.875Z,100156.19
2023-03-17T07:31:38.760Z,100151.88
2023-03-17T07:33:41.269Z,100154.47
2023-03-17T07:35:44.038Z,100156.19
2023-03-17T07:37:45.754Z,100169.09
2023-03-17T07:39:48.360Z,100163.06
2023-03-17T07:41:55.219Z,100164.78
2023-03-17T07:43:57.527Z,100164.81
2023-03-17T07:45:59.274Z,100169.13
2023-03-17T07:48:01.422Z,100166.47
2023-03-17T07:50:03.654Z,100160.50
2023-03-17T07:52:05.948Z,100161.34
2023-03-17T07:54:07.722Z,100164.78
2023-03-17T07:56:09.762Z,100163.06
2023-03-17T07:58:12.601Z,100165.66
2023-03-17T08:00:17.351Z,100163.03
2023-03-17T08:02:19.650Z,100163.03
2023-03-17T08:04:21.430Z,100188.00
2023-03-17T08:06:25.477Z,100192.31
2023-03-17T08:08:28.334Z,100208.63
2023-03-17T08:10:30.488Z,100206.09
2023-03-17T08:12:32.374Z,100212.97
2023-03-17T08:14:34.067Z,100215.53
2023-03-17T08:16:36.155Z,100210.34
2023-03-17T08:18:38.344Z,100216.38
2023-03-17T08:20:40.855Z,100214.66
2023-03-17T08:22:42.658Z,100218.03
2023-03-17T08:24:44.735Z,100207.78
2023-03-17T08:26:49.746Z,100206.09
2023-03-17T08:28:51.974Z,100202.63
2023-03-17T08:30:53.814Z,100209.50
2023-03-17T08:32:55.629Z,100206.91
2023-03-17T08:34:57.362Z,100200.84
2023-03-17T08:37:00.973Z,100201.72
2023-03-17T08:39:04.841Z,100206.81
2023-03-17T08:41:09.369Z,100212.00
2023-03-17T08:43:11.397Z,100206.00
2023-03-17T08:45:14.366Z,100212.00
2023-03-17T08:47:16.576Z,100212.88
2023-03-17T08:49:18.506Z,100206.81
2023-03-17T08:51:24.221Z,100211.94
2023-03-17T08:53:29.012Z,100208.59
2023-03-17T08:55:30.910Z,100205.97
2023-03-17T08:57:32.769Z,100199.97
2023-03-17T08:59:34.526Z,100199.13
2023-03-17T09:01:37.784Z,100193.16
2023-03-17T09:03:41.018Z,100193.16
2023-03-17T09:05:44.177Z,100186.31
2023-03-17T09:07:45.981Z,100207.75
2023-03-17T09:09:47.819Z,100212.97
2023-03-17T09:11:49.717Z,100213.84
2023-03-17T09:13:51.879Z,100219.88
2023-03-17T09:15:53.664Z,100213.03
2023-03-17T09:17:55.390Z,100217.28
2023-03-17T09:19:57.520Z,100217.28
2023-03-17T09:21:59.333Z,100216.38
2023-03-17T09:24:02.672Z,100220.72
2023-03-17T09:26:37.894Z,100224.94
2023-03-17T09:28:40.050Z,100223.22
2023-03-17T09:30:42.852Z,100226.63
2023-03-17T09:32:45.448Z,100231.78
2023-03-17T09:34:49.611Z,100230.91
2023-03-17T09:36:56.314Z,100218.00
2023-03-17T09:38:58.411Z,100212.00
2023-03-17T09:41:23.691Z,100209.34
2023-03-17T09:44:02.662Z,100211.13
2023-03-17T09:46:27.296Z,100197.31
2023-03-17T09:48:39.696Z,100193.91
2023-03-17T09:51:08.716Z,100189.63
2023-03-17T09:53:34.244Z,100206.81
2023-03-17T09:55:38.142Z,100207.72
2023-03-17T09:57:40.865Z,100199.13
2023-03-17T09:59:47.533Z,100208.59
2023-03-17T10:01:49.785Z,100200.03
2023-03-17T10:03:51.731Z,100212.06
2023-03-17T10:05:59.624Z,100216.38
2023-03-17T10:08:31.318Z,100216.38
2023-03-17T10:10:40.141Z,100212.97
2023-03-17T10:12:52.892Z,100206.09
2023-03-17T10:15:15.387Z,100212.16
2023-03-17T10:17:22.983Z,100214.75
2023-03-17T10:19:56.880Z,100210.47
2023-03-17T10:22:05.511Z,100222.44
2023-03-17T10:24:10.185Z,100226.78
2023-03-17T10:26:49.796Z,100213.03
2023-03-17T10:28:52.983Z,100210.47
2023-03-17T10:30:55.439Z,100211.31
2023-03-17T10:33:00.489Z,100213.09
2023-03-17T10:35:03.323Z,100220.81
2023-03-17T10:37:17.801Z,100224.25
2023-03-17T10:39:22.455Z,100220.75
2023-03-17T10:41:25.288Z,100222.53
2023-03-17T10:43:36.250Z,100220.75
2023-03-17T10:45:44.078Z,100216.47
2023-03-17T10:47:51.044Z,100222.47
2023-03-17T10:49:53.639Z,100225.94
2023-03-17T10:51:55.707Z,100225.97
2023-03-17T10:54:02.024Z,100220.81
2023-03-17T10:56:22.106Z,100224.25
2023-03-17T10:58:38.504Z,100225.09
2023-03-17T11:00:57.255Z,100228.53
2023-03-17T11:03:03.995Z,100226.81
2023-03-17T11:05:09.691Z,100220.81
2023-03-17T11:07:28.292Z,100227.66
2023-03-17T11:09:35.655Z,100226.78
2023-03-17T11:12:00.296Z,100226.81
2023-03-17T11:14:03.533Z,100227.69
2023-03-17T11:16:22.429Z,100225.09
2023-03-17T11:18:32.928Z,100216.50
2023-03-17T11:21:01.213Z,100220.75
2023-03-17T11:23:19.172Z,100220.78
2023-03-17T11:25:23.444Z,100221.66
2023-03-17T11:27:32.685Z,100220.81
2023-03-17T11:30:00.984Z,100219.97
2023-03-17T11:32:33.800Z,100215.63
2023-03-17T11:34:35.468Z,100216.50
2023-03-17T11:36:37.072Z,100216.50
2023-03-17T11:38:53.566Z,100219.06
2023-03-17T11:41:34.527Z,100216.50
2023-03-17T11:43:54.969Z,100208.78
2023-03-17T11:46:17.108Z,100199.28
2023-03-17T11:48:30.636Z,100209.59
2023-03-17T11:51:02.725Z,100214.78
2023-03-17T11:53:10.562Z,100211.34
2023-03-17T11:55:20.919Z,100219.06
2023-03-17T11:57:39.282Z,100225.09
2023-03-17T11:59:52.289Z,100233.72
2023-03-17T12:01:54.874Z,100233.66
2023-03-17T12:04:14.778Z,100231.94
2023-03-17T12:06:21.722Z,100228.53
2023-03-17T12:08:23.559Z,100226.78
2023-03-17T12:10:45.416Z,100225.06
2023-03-17T12:12:56.803Z,100228.50
2023-03-17T12:15:02.406Z,100230.19
2023-03-17T12:17:16.401Z,100235.44
2023-03-17T12:19:47.270Z,100232.81
2023-03-17T12:21:55.736Z,100235.34
2023-03-17T12:24:11.875Z,100244.81
2023-03-17T12:26:39.484Z,100236.16
2023-03-17T12:28:58.208Z,100228.44
2023-03-17T12:31:04.388Z,100225.00
2023-03-17T12:33:39.366Z,100207.78
2023-03-17T12:35:41.117Z,100212.94
2023-03-17T12:37:42.971Z,100208.59
2023-03-17T12:40:01.043Z,100218.97
2023-03-17T12:42:41.244Z,100224.13
2023-03-17T12:44:56.374Z,100197.47
2023-03-17T12:47:13.244Z,100201.75
2023-03-17T12:49:46.164Z,100199.22
2023-03-17T12:51:56.699Z,100204.38
2023-03-17T12:54:00.263Z,100201.78
2023-03-17T12:56:20.446Z,100213.81
2023-03-17T12:58:26.558Z,100201.78
2023-03-17T13:00:50.744Z,100208.63
2023-03-17T13:03:09.610Z,100194.00
2023-03-17T13:05:15.667Z,100183.69
2023-03-17T13:07:23.457Z,100181.13
2023-03-17T13:09:57.150Z,100201.78
2023-03-17T13:12:04.212Z,100184.59
2023-03-17T13:14:26.513Z,100182.00
2023-03-17T13:16:41.398Z,100185.44
2023-03-17T13:18:48.912Z,100196.63
2023-03-17T13:20:56.834Z,100175.16
2023-03-17T13:23:10.834Z,100180.34
2023-03-17T13:25:35.112Z,100187.22
2023-03-17T13:27:40.254Z,100177.78
2023-03-17T13:29:47.426Z,100176.91
2023-03-17T13:31:49.156Z,100179.50
2023-03-17T13:33:56.746Z,100181.19
2023-03-17T13:36:22.806Z,100168.31
2023-03-17T13:39:04.952Z,100162.31
2023-03-17T13:41:49.940Z,100164.91
2023-03-17T13:44:26.665Z,100168.38
2023-03-17T13:46:48.472Z,100161.44
2023-03-17T13:48:52.321Z,100161.47
2023-03-17T13:51:15.340Z,100160.63
2023-03-17T13:53:33.309Z,100164.94
2023-03-17T13:55:41.546Z,100164.09
2023-03-17T13:57:43.400Z,100165.78
2023-03-17T13:59:51.147Z,100152.00
2023-03-17T14:01:57.889Z,100161.47
2023-03-17T14:04:03.251Z,100159.75
2023-03-17T14:06:08.120Z,100156.28
2023-03-17T14:08:33.967Z,100162.31
2023-03-17T14:10:36.334Z,100152.88
2023-03-17T14:13:01.151Z,100162.34
2023-03-17T14:15:16.873Z,100150.28
2023-03-17T14:17:47.005Z,100151.97
2023-03-17T14:20:06.503Z,100154.53
2023-03-17T14:22:25.134Z,100152.78
2023-03-17T14:24:32.234Z,100152.78
2023-03-17T14:26:38.128Z,100139.84
2023-03-17T14:28:40.265Z,100134.66
2023-03-17T14:30:52.117Z,100137.25
2023-03-17T14:33:05.039Z,100135.44
2023-03-17T14:35:13.302Z,100150.09
2023-03-17T14:37:15.991Z,100133.59
2023-03-17T14:39:25.948Z,100137.78
2023-03-17T14:41:28.864Z,100132.38
2023-03-17T14:43:33.414Z,100131.53
2023-03-17T14:46:00.488Z,100138.19
2023-03-17T14:48:02.737Z,100159.81
2023-03-17T14:50:27.670Z,100142.56
2023-03-17T14:52:33.119Z,100146.81
2023-03-17T14:54:35.964Z,100145.13
2023-03-17T14:56:43.122Z,100138.13
2023-03-17T14:58:48.564Z,100145.19
2023-03-17T15:01:04.468Z,100140.94
2023-03-17T15:03:35.432Z,100144.34
2023-03-17T15:05:41.410Z,100138.38
2023-03-17T15:07:43.320Z,100152.16
2023-03-17T15:09:45.023Z,100141.03
2023-03-17T15:11:48.206Z,100143.59
2023-03-17T15:13:53.229Z,100144.47
2023-03-17T15:15:56.174Z,100142.72
2023-03-17T15:18:01.274Z,100143.56
2023-03-17T15:20:07.222Z,100131.38
2023-03-17T15:22:25.399Z,100133.91
2023-03-17T15:24:49.470Z,100129.59
2023-03-17T15:26:51.180Z,100121.72
2023-03-17T15:28:52.872Z,100114.66
2023-03-17T15:30:59.371Z,100110.38
2023-03-17T15:33:03.212Z,100117.13
2023-03-17T15:35:06.840Z,100110.22
2023-03-17T15:37:19.278Z,100122.38
2023-03-17T15:39:20.989Z,100110.16
2023-03-17T15:41:22.952Z,100112.75
2023-03-17T15:43:35.462Z,100106.81
2023-03-17T15:45:37.232Z,100110.22
2023-03-17T15:47:41.751Z,100111.13
2023-03-17T15:49:45.257Z,100114.59
2023-03-17T15:51:47.044Z,100110.16
2023-03-17T15:53:48.835Z,100110.91
2023-03-17T15:55:50.512Z,100106.38
2023-03-17T15:57:55.740Z,100117.56
2023-03-17T15:59:57.558Z,100116.69
2023-03-17T16:01:59.476Z,100112.25
2023-03-17T16:04:02.000Z,100126.16
2023-03-17T16:06:07.496Z,100128.16
2023-03-17T16:08:14.791Z,100130.22
2023-03-17T16:10:21.856Z,100124.06
2023-03-17T16:12:23.678Z,100125.81
2023-03-17T16:14:25.439Z,100130.19
2023-03-17T16:16:35.180Z,100124.19
2023-03-17T16:18:38.343Z,100123.13
2023-03-17T16:20:42.948Z,100131.00
2023-03-17T16:22:44.847Z,100117.22
2023-03-17T16:24:46.478Z,100120.63
2023-03-17T16:26:49.377Z,100132.09
2023-03-17T16:28:51.123Z,100123.44
2023-03-17T16:30:54.774Z,100128.59
2023-03-17T16:33:14.503Z,100121.75
2023-03-17T16:35:19.550Z,100129.56
2023-03-17T16:37:21.522Z,100123.56
2023-03-17T16:39:24.178Z,100133.06
2023-03-17T16:41:27.487Z,100123.59
2023-03-17T16:43:37.930Z,100125.28
2023-03-17T16:45:39.873Z,100130.59
2023-03-17T16:47:41.509Z,100134.13
2023-03-17T16:49:43.416Z,100129.84
2023-03-17T16:51:46.258Z,100140.16
2023-03-17T16:53:48.276Z,100132.38
2023-03-17T16:55:51.203Z,100147.16
2023-03-17T16:57:56.436Z,100137.59
2023-03-17T16:59:59.862Z,100144.47
2023-03-17T17:02:02.126Z,100136.69
2023-03-17T17:04:10.080Z,100149.69
2023-03-17T17:06:14.500Z,100146.16
2023-03-17T17:08:16.474Z,100154.78
2023-03-17T17:10:19.948Z,100159.09
2023-03-17T17:12:21.916Z,100166.91
2023-03-17T17:14:23.583Z,100161.75
2023-03-17T17:16:33.136Z,100169.53
2023-03-17T17:18:37.723Z,100166.22
2023-03-17T17:20:40.619Z,100159.19
2023-03-17T17:22:42.864Z,100174.94
2023-03-17T17:24:44.589Z,100175.78
2023-03-17T17:26:46.527Z,100178.38
2023-03-17T17:28:48.518Z,100173.19
2023-03-17T17:30:52.154Z,100171.59
2023-03-17T17:32:55.709Z,100181.06
2023-03-17T17:34:59.514Z,100175.94
2023-03-17T17:37:01.366Z,100185.47
2023-03-17T17:39:03.622Z,100196.69
2023-03-17T17:41:09.139Z,100196.66
2023-03-17T17:43:11.380Z,100197.53
2023-03-17T17:45:14.961Z,100195.81
2023-03-17T17:47:17.185Z,100190.66
2023-03-17T17:49:18.957Z,100201.00
2023-03-17T17:51:28.510Z,100209.66
2023-03-17T17:53:31.205Z,100211.34
2023-03-17T17:55:33.839Z,100204.44
2023-03-17T17:57:36.204Z,100206.16
2023-03-17T17:59:38.094Z,100202.69
2023-03-17T18:01:40.352Z,100200.16
2023-03-17T18:03:47.424Z,100201.88
2023-03-17T18:05:49.152Z,100201.88
2023-03-17T18:07:53.310Z,100208.75
2023-03-17T18:09:55.331Z,100208.78
2023-03-17T18:12:00.035Z,100196.72
2023-03-17T18:14:01.763Z,100208.78
2023-03-17T18:16:05.021Z,100205.31
2023-03-17T18:18:06.855Z,100212.25
2023-03-17T18:20:12.357Z,100216.53
2023-03-17T18:22:14.774Z,100226.00
2023-03-17T18:24:16.588Z,100229.50
2023-03-17T18:26:19.093Z,100232.09
2023-03-17T18:28:20.914Z,100232.94
2023-03-17T18:30:30.018Z,100230.38
2023-03-17T18:32:33.556Z,100233.81
2023-03-17T18:34:43.508Z,100233.84
2023-03-17T18:36:46.880Z,100228.69
2023-03-17T18:38:49.474Z,100233.84
2023-03-17T18:40:51.516Z,100240.75
2023-03-17T18:42:54.482Z,100239.03
2023-03-17T18:44:56.334Z,100238.16
2023-03-17T18:46:58.219Z,100241.59
2023-03-17T18:49:00.104Z,100244.22
2023-03-17T18:51:02.080Z,100246.81
2023-03-17T18:53:04.340Z,100242.50
2023-03-17T18:55:06.864Z,100246.78
2023-03-17T18:57:08.721Z,100248.53
2023-03-17T18:59:10.564Z,100245.06
2023-03-17T19:01:12.907Z,100245.09
2023-03-17T19:03:22.513Z,100243.34
2023-03-17T19:05:25.832Z,100239.03
2023-03-17T19:07:27.853Z,100247.66
2023-03-17T19:09:29.559Z,100245.94
2023-03-17T19:11:31.278Z,100245.06
2023-03-17T19:13:33.090Z,100244.22
2023-03-17T19:15:35.475Z,100243.34
2023-03-17T19:17:37.359Z,100245.06
2023-03-17T19:19:41.719Z,100242.50
2023-03-17T19:21:43.490Z,100245.09
2023-03-17T19:23:45.279Z,100239.06
2023-03-17T19:25:46.936Z,100245.06
2023-03-17T19:27:48.729Z,100246.78
2023-03-17T19:29:50.456Z,100236.47
2023-03-17T19:31:52.075Z,100238.19
2023-03-17T19:33:55.509Z,100241.63
2023-03-17T19:35:59.985Z,100239.91
2023-03-17T19:38:02.758Z,100243.34
2023-03-17T19:40:07.650Z,100244.22
2023-03-17T19:42:09.370Z,100246.78
2023-03-17T19:44:11.126Z,100240.75
2023-03-17T19:46:12.967Z,100248.50
2023-03-17T19:48:15.030Z,100237.31
2023-03-17T19:50:17.057Z,100240.75
2023-03-17T19:52:19.054Z,100236.44
2023-03-17T19:54:23.424Z,100250.22
2023-03-17T19:56:25.268Z,100242.41
2023-03-17T19:58:27.099Z,100236.44
2023-03-17T20:00:29.074Z,100241.59
2023-03-17T20:02:31.525Z,100245.00
2023-03-17T20:04:33.451Z,100257.88
2023-03-17T20:06:35.198Z,100255.31
2023-03-17T20:08:37.266Z,100261.31
2023-03-17T20:10:39.276Z,100263.03
2023-03-17T20:12:42.712Z,100264.75
2023-03-17T20:14:44.587Z,100262.19
2023-03-17T20:16:47.796Z,100264.72
2023-03-17T20:18:49.526Z,100272.44
2023-03-17T20:20:53.410Z,100274.22
2023-03-17T20:22:55.084Z,100273.34
2023-03-17T20:24:56.983Z,100278.47
2023-03-17T20:26:59.598Z,100284.47
2023-03-17T20:29:02.157Z,100279.34
2023-03-17T20:31:04.800Z,100281.91
2023-03-17T20:33:09.110Z,100281.06
2023-03-17T20:35:11.473Z,100282.72
2023-03-17T20:37:14.294Z,100279.28
2023-03-17T20:39:19.967Z,100287.94
2023-03-17T20:41:22.600Z,100282.75
2023-03-17T20:43:28.791Z,100281.91
2023-03-17T20:45:30.491Z,100279.28
2023-03-17T20:47:32.169Z,100274.13
2023-03-17T20:49:34.224Z,100281.88
2023-03-17T20:51:36.022Z,100274.97
2023-03-17T20:53:37.803Z,100280.16
2023-03-17T20:55:42.411Z,100281.06
2023-03-17T20:57:48.796Z,100283.59
2023-03-17T20:59:52.118Z,100286.19
2023-03-17T21:01:53.861Z,100292.16
2023-03-17T21:03:55.782Z,100280.97
2023-03-17T21:05:57.474Z,100290.44
2023-03-17T21:07:59.250Z,100286.97
2023-03-17T21:10:02.205Z,100284.34
2023-03-17T21:12:04.079Z,100282.63
2023-03-17T21:14:08.082Z,100285.25
2023-03-17T21:16:22.649Z,100288.63
2023-03-17T21:18:24.370Z,100287.72
2023-03-17T21:20:26.282Z,100286.03
2023-03-17T21:22:30.110Z,100288.66
2023-03-17T21:24:35.749Z,100278.34
2023-03-17T21:26:37.391Z,100281.81
2023-03-17T21:28:41.502Z,100280.00
2023-03-17T21:30:44.365Z,100276.59
2023-03-17T21:32:46.231Z,100266.28
2023-03-17T21:34:48.211Z,100274.88
2023-03-17T21:36:51.406Z,100275.75
2023-03-17T21:38:53.240Z,100272.31
2023-03-17T21:40:56.920Z,100268.84
2023-03-17T21:43:00.792Z,100259.44
2023-03-17T21:45:02.687Z,100258.59
2023-03-17T21:47:04.993Z,100264.59
2023-03-17T21:49:06.646Z,100253.41
2023-03-17T21:51:08.727Z,100254.28
2023-03-17T21:53:13.950Z,100268.06
2023-03-17T21:55:15.949Z,100274.88
2023-03-17T21:57:18.054Z,100268.00
2023-03-17T21:59:21.058Z,100274.88
2023-03-17T22:01:23.247Z,100277.41
2023-03-17T22:03:32.397Z,100269.66
2023-03-17T22:05:34.450Z,100273.16
2023-03-17T22:07:38.161Z,100278.28
2023-03-17T22:09:40.296Z,100276.56
2023-03-17T22:11:42.044Z,100277.47
2023-03-17T22:13:44.319Z,100285.16
2023-03-17T22:15:46.109Z,100286.88
2023-03-17T22:17:47.775Z,100288.59
2023-03-17T22:19:49.536Z,100288.59
2023-03-17T22:21:51.830Z,100295.53
2023-03-17T22:23:53.577Z,100296.34
2023-03-17T22:25:56.662Z,100304.06
2023-03-17T22:27:58.484Z,100307.44
2023-03-17T22:30:00.205Z,100317.78
2023-03-17T22:32:02.387Z,100319.41
2023-03-17T22:34:04.361Z,100309.97
2023-03-17T22:36:06.925Z,100311.75
2023-03-17T22:38:09.126Z,100309.97
2023-03-17T22:40:11.387Z,100322.78
2023-03-17T22:42:13.217Z,100309.94
2023-03-17T22:44:14.963Z,100308.31
2023-03-17T22:46:17.838Z,100306.53
2023-03-17T22:48:19.957Z,100328.00
2023-03-17T22:50:22.288Z,100317.69
2023-03-17T22:52:24.065Z,100326.97
2023-03-17T22:54:25.803Z,100319.28
2023-03-17T22:56:27.714Z,100305.59
2023-03-17T22:58:29.643Z,100311.66
2023-03-17T23:00:32.462Z,100320.28
2023-03-17T23:02:34.640Z,100323.63
2023-03-17T23:04:37.011Z,100314.97
2023-03-17T23:06:38.862Z,100321.63
2023-03-17T23:08:42.974Z,100320.13
2023-03-17T23:10:45.942Z,100316.47
2023-03-17T23:12:48.568Z,100319.91
2023-03-17T23:14:50.313Z,100321.63
2023-03-17T23:16:52.229Z,100322.44
2023-03-17T23:18:54.599Z,100320.78
2023-03-17T23:20:56.345Z,100314.69
2023-03-17T23:22:58.142Z,100311.34
2023-03-17T23:25:01.257Z,100322.56
2023-03-17T23:27:03.039Z,100314.75
2023-03-17T23:29:07.147Z,100311.38
2023-03-17T23:31:09.046Z,100318.13
2023-03-17T23:33:10.834Z,100316.50
2023-03-17T23:35:13.704Z,100317.34
2023-03-17T23:37:15.540Z,100311.22
2023-03-17T23:39:17.612Z,100309.53
2023-03-17T23:41:19.420Z,100301.09
2023-03-17T23:43:28.668Z,100300.97
2023-03-17T23:45:30.565Z,100303.59
2023-03-17T23:47:32.249Z,100303.59
2023-03-17T23:49:33.939Z,100307.09
2023-03-17T23:51:36.302Z,100304.47
2023-03-17T23:53:39.703Z,100307.03